sensor_id;sensor_type;location;lat;lon;timestamp;P1;durP1;ratioP1;P2;durP2;ratioP2
20449;SDS011;10384;51.940;8.432;2023-07-22T00:02:06;13.10;;;5.87;;
20449;SDS011;10384;51.940;8.432;2023-07-22T00:04:32;11.77;;;5.60;;
20449;SDS011;10384;51.940;8.432;2023-07-22T00:06:58;13.40;;;5.40;;
20449;SDS011;10384;51.940;8.432;2023-07-22T00:09:24;9.47;;;4.97;;
20449;SDS011;10384;51.940;8.432;2023-07-22T00:11:50;12.07;;;5.20;;
20449;SDS011;10384;51.940;8.432;2023-07-22T00:14:16;11.67;;;5.47;;
20449;SDS011;10384;51.940;8.432;2023-07-22T00:16:42;13.47;;;5.63;;
20449;SDS011;10384;51.940;8.432;2023-07-22T00:19:08;12.70;;;5.80;;
20449;SDS011;10384;51.940;8.432;2023-07-22T00:21:34;12.83;;;5.27;;
20449;SDS011;10384;51.940;8.432;2023-07-22T00:24:00;14.53;;;5.90;;
20449;SDS011;10384;51.940;8.432;2023-07-22T00:26:26;12.90;;;6.00;;
20449;SDS011;10384;51.940;8.432;2023-07-22T00:28:52;13.50;;;5.67;;
20449;SDS011;10384;51.940;8.432;2023-07-22T00:31:18;14.90;;;6.07;;
20449;SDS011;10384;51.940;8.432;2023-07-22T00:33:44;12.67;;;5.27;;
20449;SDS011;10384;51.940;8.432;2023-07-22T00:36:10;12.67;;;5.27;;
20449;SDS011;10384;51.940;8.432;2023-07-22T00:38:36;10.07;;;5.20;;
20449;SDS011;10384;51.940;8.432;2023-07-22T00:41:02;12.73;;;5.17;;
20449;SDS011;10384;51.940;8.432;2023-07-22T00:43:32;12.47;;;5.63;;
20449;SDS011;10384;51.940;8.432;2023-07-22T00:45:58;8.90;;;4.93;;
20449;SDS011;10384;51.940;8.432;2023-07-22T00:48:24;11.30;;;5.50;;
20449;SDS011;10384;51.940;8.432;2023-07-22T00:50:51;11.07;;;5.03;;
20449;SDS011;10384;51.940;8.432;2023-07-22T00:53:17;9.90;;;4.90;;
20449;SDS011;10384;51.940;8.432;2023-07-22T00:55:43;18.90;;;5.57;;
20449;SDS011;10384;51.940;8.432;2023-07-22T00:58:10;10.80;;;4.80;;
20449;SDS011;10384;51.940;8.432;2023-07-22T01:00:36;10.97;;;5.43;;
20449;SDS011;10384;51.940;8.432;2023-07-22T01:03:02;11.80;;;5.00;;
20449;SDS011;10384;51.940;8.432;2023-07-22T01:05:29;11.07;;;5.23;;
20449;SDS011;10384;51.940;8.432;2023-07-22T01:07:56;11.50;;;4.70;;
20449;SDS011;10384;51.940;8.432;2023-07-22T01:10:22;12.17;;;5.13;;
20449;SDS011;10384;51.940;8.432;2023-07-22T01:12:48;14.50;;;5.60;;
20449;SDS011;10384;51.940;8.432;2023-07-22T01:15:14;8.97;;;4.83;;
20449;SDS011;10384;51.940;8.432;2023-07-22T01:17:40;14.17;;;5.30;;
20449;SDS011;10384;51.940;8.432;2023-07-22T01:20:06;13.13;;;5.63;;
20449;SDS011;10384;51.940;8.432;2023-07-22T01:22:34;11.10;;;5.17;;
20449;SDS011;10384;51.940;8.432;2023-07-22T01:25:01;11.03;;;5.43;;
20449;SDS011;10384;51.940;8.432;2023-07-22T01:27:27;13.43;;;4.97;;
20449;SDS011;10384;51.940;8.432;2023-07-22T01:29:53;8.43;;;4.30;;
20449;SDS011;10384;51.940;8.432;2023-07-22T01:32:19;9.73;;;4.93;;
20449;SDS011;10384;51.940;8.432;2023-07-22T01:34:45;12.40;;;6.00;;
20449;SDS011;10384;51.940;8.432;2023-07-22T01:37:11;10.73;;;5.33;;
20449;SDS011;10384;51.940;8.432;2023-07-22T01:39:37;10.77;;;5.50;;
20449;SDS011;10384;51.940;8.432;2023-07-22T01:42:03;11.13;;;4.90;;
20449;SDS011;10384;51.940;8.432;2023-07-22T01:44:29;10.77;;;5.07;;
20449;SDS011;10384;51.940;8.432;2023-07-22T01:46:56;12.47;;;5.00;;
20449;SDS011;10384;51.940;8.432;2023-07-22T01:49:22;13.80;;;5.20;;
20449;SDS011;10384;51.940;8.432;2023-07-22T01:51:49;12.07;;;5.70;;
20449;SDS011;10384;51.940;8.432;2023-07-22T01:54:15;10.13;;;4.67;;
20449;SDS011;10384;51.940;8.432;2023-07-22T01:56:41;13.17;;;5.57;;
20449;SDS011;10384;51.940;8.432;2023-07-22T01:59:07;11.80;;;5.63;;
20449;SDS011;10384;51.940;8.432;2023-07-22T02:01:34;11.60;;;5.53;;
20449;SDS011;10384;51.940;8.432;2023-07-22T02:04:00;18.00;;;5.40;;
20449;SDS011;10384;51.940;8.432;2023-07-22T02:06:26;11.47;;;4.80;;
20449;SDS011;10384;51.940;8.432;2023-07-22T02:08:53;13.93;;;5.57;;
20449;SDS011;10384;51.940;8.432;2023-07-22T02:11:20;12.70;;;6.00;;
20449;SDS011;10384;51.940;8.432;2023-07-22T02:13:46;13.63;;;5.57;;
20449;SDS011;10384;51.940;8.432;2023-07-22T02:16:12;13.00;;;5.30;;
20449;SDS011;10384;51.940;8.432;2023-07-22T02:18:38;14.17;;;6.47;;
20449;SDS011;10384;51.940;8.432;2023-07-22T02:21:05;14.33;;;6.57;;
20449;SDS011;10384;51.940;8.432;2023-07-22T02:23:31;14.53;;;6.23;;
20449;SDS011;10384;51.940;8.432;2023-07-22T02:25:57;10.97;;;5.07;;
20449;SDS011;10384;51.940;8.432;2023-07-22T02:28:24;14.53;;;5.40;;
20449;SDS011;10384;51.940;8.432;2023-07-22T02:30:51;10.90;;;5.60;;
20449;SDS011;10384;51.940;8.432;2023-07-22T02:33:18;13.60;;;5.50;;
20449;SDS011;10384;51.940;8.432;2023-07-22T02:35:44;11.47;;;5.17;;
20449;SDS011;10384;51.940;8.432;2023-07-22T02:38:11;12.40;;;5.10;;
20449;SDS011;10384;51.940;8.432;2023-07-22T02:40:37;15.07;;;5.77;;
20449;SDS011;10384;51.940;8.432;2023-07-22T02:43:03;11.70;;;5.13;;
20449;SDS011;10384;51.940;8.432;2023-07-22T02:45:30;10.53;;;4.67;;
20449;SDS011;10384;51.940;8.432;2023-07-22T02:47:56;11.67;;;5.80;;
20449;SDS011;10384;51.940;8.432;2023-07-22T02:50:22;11.67;;;5.40;;
20449;SDS011;10384;51.940;8.432;2023-07-22T02:52:48;10.23;;;5.43;;
20449;SDS011;10384;51.940;8.432;2023-07-22T02:55:16;11.80;;;5.03;;
20449;SDS011;10384;51.940;8.432;2023-07-22T02:57:45;12.67;;;5.30;;
20449;SDS011;10384;51.940;8.432;2023-07-22T03:00:12;12.97;;;5.30;;
20449;SDS011;10384;51.940;8.432;2023-07-22T03:02:41;12.40;;;5.20;;
20449;SDS011;10384;51.940;8.432;2023-07-22T03:05:07;11.23;;;5.17;;
20449;SDS011;10384;51.940;8.432;2023-07-22T03:07:34;11.90;;;5.70;;
20449;SDS011;10384;51.940;8.432;2023-07-22T03:10:00;9.60;;;5.17;;
20449;SDS011;10384;51.940;8.432;2023-07-22T03:12:26;13.23;;;5.87;;
20449;SDS011;10384;51.940;8.432;2023-07-22T03:14:52;15.87;;;5.60;;
20449;SDS011;10384;51.940;8.432;2023-07-22T03:17:18;15.43;;;5.67;;
20449;SDS011;10384;51.940;8.432;2023-07-22T03:19:45;12.33;;;5.33;;
20449;SDS011;10384;51.940;8.432;2023-07-22T03:22:13;12.23;;;5.90;;
20449;SDS011;10384;51.940;8.432;2023-07-22T03:24:40;13.43;;;5.37;;
20449;SDS011;10384;51.940;8.432;2023-07-22T03:27:06;14.83;;;5.83;;
20449;SDS011;10384;51.940;8.432;2023-07-22T03:29:32;15.77;;;6.37;;
20449;SDS011;10384;51.940;8.432;2023-07-22T03:31:59;14.13;;;6.37;;
20449;SDS011;10384;51.940;8.432;2023-07-22T03:34:25;14.83;;;6.23;;
20449;SDS011;10384;51.940;8.432;2023-07-22T03:36:51;14.07;;;5.97;;
20449;SDS011;10384;51.940;8.432;2023-07-22T03:39:17;14.40;;;6.40;;
20449;SDS011;10384;51.940;8.432;2023-07-22T03:41:43;14.87;;;6.70;;
20449;SDS011;10384;51.940;8.432;2023-07-22T03:44:10;16.43;;;6.37;;
20449;SDS011;10384;51.940;8.432;2023-07-22T03:46:36;14.63;;;5.97;;
20449;SDS011;10384;51.940;8.432;2023-07-22T03:49:03;12.87;;;6.17;;
20449;SDS011;10384;51.940;8.432;2023-07-22T03:51:29;15.80;;;6.50;;
20449;SDS011;10384;51.940;8.432;2023-07-22T03:53:55;18.73;;;6.13;;
20449;SDS011;10384;51.940;8.432;2023-07-22T03:56:21;19.30;;;7.17;;
20449;SDS011;10384;51.940;8.432;2023-07-22T03:58:48;15.30;;;6.23;;
20449;SDS011;10384;51.940;8.432;2023-07-22T04:01:14;15.83;;;6.97;;
20449;SDS011;10384;51.940;8.432;2023-07-22T04:03:40;16.20;;;6.73;;
20449;SDS011;10384;51.940;8.432;2023-07-22T04:06:06;13.80;;;6.23;;
20449;SDS011;10384;51.940;8.432;2023-07-22T04:08:33;16.70;;;6.83;;
20449;SDS011;10384;51.940;8.432;2023-07-22T04:10:58;17.83;;;6.77;;
20449;SDS011;10384;51.940;8.432;2023-07-22T04:13:25;18.17;;;6.97;;
20449;SDS011;10384;51.940;8.432;2023-07-22T04:15:51;16.03;;;6.43;;
20449;SDS011;10384;51.940;8.432;2023-07-22T04:18:18;14.00;;;6.00;;
20449;SDS011;10384;51.940;8.432;2023-07-22T04:20:44;15.77;;;6.40;;
20449;SDS011;10384;51.940;8.432;2023-07-22T04:23:10;16.40;;;7.03;;
20449;SDS011;10384;51.940;8.432;2023-07-22T04:25:40;14.47;;;6.03;;
20449;SDS011;10384;51.940;8.432;2023-07-22T04:28:06;13.73;;;6.13;;
20449;SDS011;10384;51.940;8.432;2023-07-22T04:30:37;16.40;;;6.23;;
20449;SDS011;10384;51.940;8.432;2023-07-22T04:33:04;16.10;;;6.27;;
20449;SDS011;10384;51.940;8.432;2023-07-22T04:35:31;16.07;;;6.60;;
20449;SDS011;10384;51.940;8.432;2023-07-22T04:37:57;16.30;;;6.63;;
20449;SDS011;10384;51.940;8.432;2023-07-22T04:40:23;14.60;;;6.47;;
20449;SDS011;10384;51.940;8.432;2023-07-22T04:42:50;15.20;;;6.73;;
20449;SDS011;10384;51.940;8.432;2023-07-22T04:45:16;16.87;;;6.60;;
20449;SDS011;10384;51.940;8.432;2023-07-22T04:47:45;15.97;;;5.67;;
20449;SDS011;10384;51.940;8.432;2023-07-22T04:50:13;18.17;;;6.80;;
20449;SDS011;10384;51.940;8.432;2023-07-22T04:52:44;14.03;;;6.10;;
20449;SDS011;10384;51.940;8.432;2023-07-22T04:55:10;16.43;;;6.90;;
20449;SDS011;10384;51.940;8.432;2023-07-22T04:57:37;17.10;;;6.37;;
20449;SDS011;10384;51.940;8.432;2023-07-22T05:00:04;16.07;;;5.80;;
20449;SDS011;10384;51.940;8.432;2023-07-22T05:02:30;18.30;;;6.67;;
20449;SDS011;10384;51.940;8.432;2023-07-22T05:04:56;15.43;;;6.20;;
20449;SDS011;10384;51.940;8.432;2023-07-22T05:07:22;15.10;;;6.50;;
20449;SDS011;10384;51.940;8.432;2023-07-22T05:09:49;16.70;;;6.80;;
20449;SDS011;10384;51.940;8.432;2023-07-22T05:12:16;15.10;;;5.77;;
20449;SDS011;10384;51.940;8.432;2023-07-22T05:14:42;14.77;;;5.93;;
20449;SDS011;10384;51.940;8.432;2023-07-22T05:17:08;16.10;;;5.70;;
20449;SDS011;10384;51.940;8.432;2023-07-22T05:19:34;15.93;;;6.47;;
20449;SDS011;10384;51.940;8.432;2023-07-22T05:22:00;14.77;;;6.30;;
20449;SDS011;10384;51.940;8.432;2023-07-22T05:24:26;18.33;;;6.30;;
20449;SDS011;10384;51.940;8.432;2023-07-22T05:26:52;16.20;;;6.97;;
20449;SDS011;10384;51.940;8.432;2023-07-22T05:29:19;14.63;;;6.37;;
20449;SDS011;10384;51.940;8.432;2023-07-22T05:31:45;15.17;;;6.30;;
20449;SDS011;10384;51.940;8.432;2023-07-22T05:34:11;14.70;;;6.70;;
20449;SDS011;10384;51.940;8.432;2023-07-22T05:36:37;18.77;;;7.07;;
20449;SDS011;10384;51.940;8.432;2023-07-22T05:39:03;19.07;;;6.73;;
20449;SDS011;10384;51.940;8.432;2023-07-22T05:41:29;16.27;;;6.70;;
20449;SDS011;10384;51.940;8.432;2023-07-22T05:43:55;17.50;;;7.03;;
20449;SDS011;10384;51.940;8.432;2023-07-22T05:46:21;17.50;;;6.80;;
20449;SDS011;10384;51.940;8.432;2023-07-22T05:48:47;15.60;;;6.80;;
20449;SDS011;10384;51.940;8.432;2023-07-22T05:51:13;17.33;;;6.97;;
20449;SDS011;10384;51.940;8.432;2023-07-22T05:53:40;18.73;;;6.57;;
20449;SDS011;10384;51.940;8.432;2023-07-22T05:56:06;13.57;;;6.43;;
20449;SDS011;10384;51.940;8.432;2023-07-22T05:58:32;16.50;;;6.00;;
20449;SDS011;10384;51.940;8.432;2023-07-22T06:00:58;16.67;;;6.40;;
20449;SDS011;10384;51.940;8.432;2023-07-22T06:03:24;17.13;;;6.37;;
20449;SDS011;10384;51.940;8.432;2023-07-22T06:05:50;18.43;;;6.90;;
20449;SDS011;10384;51.940;8.432;2023-07-22T06:08:16;20.67;;;7.73;;
20449;SDS011;10384;51.940;8.432;2023-07-22T06:10:42;18.87;;;6.40;;
20449;SDS011;10384;51.940;8.432;2023-07-22T06:13:08;19.70;;;7.73;;
20449;SDS011;10384;51.940;8.432;2023-07-22T06:15:34;19.43;;;7.20;;
20449;SDS011;10384;51.940;8.432;2023-07-22T06:18:00;19.97;;;7.80;;
20449;SDS011;10384;51.940;8.432;2023-07-22T06:20:26;21.77;;;8.33;;
20449;SDS011;10384;51.940;8.432;2023-07-22T06:22:52;18.17;;;7.63;;
20449;SDS011;10384;51.940;8.432;2023-07-22T06:25:19;17.30;;;7.30;;
20449;SDS011;10384;51.940;8.432;2023-07-22T06:27:45;18.60;;;7.63;;
20449;SDS011;10384;51.940;8.432;2023-07-22T06:30:11;20.07;;;7.57;;
20449;SDS011;10384;51.940;8.432;2023-07-22T06:32:37;16.90;;;7.50;;
20449;SDS011;10384;51.940;8.432;2023-07-22T06:35:03;18.13;;;6.73;;
20449;SDS011;10384;51.940;8.432;2023-07-22T06:37:30;17.13;;;6.87;;
20449;SDS011;10384;51.940;8.432;2023-07-22T06:39:56;15.13;;;7.17;;
20449;SDS011;10384;51.940;8.432;2023-07-22T06:42:22;16.53;;;7.57;;
20449;SDS011;10384;51.940;8.432;2023-07-22T06:44:48;18.27;;;7.50;;
20449;SDS011;10384;51.940;8.432;2023-07-22T06:47:14;16.10;;;7.10;;
20449;SDS011;10384;51.940;8.432;2023-07-22T06:49:40;15.77;;;6.77;;
20449;SDS011;10384;51.940;8.432;2023-07-22T06:52:06;19.70;;;7.67;;
20449;SDS011;10384;51.940;8.432;2023-07-22T06:54:33;20.10;;;7.43;;
20449;SDS011;10384;51.940;8.432;2023-07-22T06:56:59;19.90;;;7.43;;
20449;SDS011;10384;51.940;8.432;2023-07-22T06:59:25;19.53;;;7.37;;
20449;SDS011;10384;51.940;8.432;2023-07-22T07:01:51;18.73;;;7.47;;
20449;SDS011;10384;51.940;8.432;2023-07-22T07:04:17;18.07;;;7.23;;
20449;SDS011;10384;51.940;8.432;2023-07-22T07:06:43;17.73;;;6.60;;
20449;SDS011;10384;51.940;8.432;2023-07-22T07:09:10;15.17;;;6.40;;
20449;SDS011;10384;51.940;8.432;2023-07-22T07:11:36;18.37;;;7.73;;
20449;SDS011;10384;51.940;8.432;2023-07-22T07:14:02;18.70;;;7.50;;
20449;SDS011;10384;51.940;8.432;2023-07-22T07:16:29;21.47;;;7.87;;
20449;SDS011;10384;51.940;8.432;2023-07-22T07:18:56;18.13;;;7.97;;
20449;SDS011;10384;51.940;8.432;2023-07-22T07:21:23;17.93;;;8.07;;
20449;SDS011;10384;51.940;8.432;2023-07-22T07:23:49;19.57;;;7.47;;
20449;SDS011;10384;51.940;8.432;2023-07-22T07:26:15;15.37;;;6.27;;
20449;SDS011;10384;51.940;8.432;2023-07-22T07:28:41;16.23;;;7.03;;
20449;SDS011;10384;51.940;8.432;2023-07-22T07:31:07;13.63;;;5.77;;
20449;SDS011;10384;51.940;8.432;2023-07-22T07:33:33;13.80;;;5.63;;
20449;SDS011;10384;51.940;8.432;2023-07-22T07:35:59;16.23;;;6.73;;
20449;SDS011;10384;51.940;8.432;2023-07-22T07:38:25;13.57;;;5.60;;
20449;SDS011;10384;51.940;8.432;2023-07-22T07:41:12;10.73;;;4.70;;
20449;SDS011;10384;51.940;8.432;2023-07-22T07:43:39;14.53;;;5.50;;
20449;SDS011;10384;51.940;8.432;2023-07-22T07:46:12;18.40;;;6.37;;
20449;SDS011;10384;51.940;8.432;2023-07-22T07:48:38;12.50;;;4.77;;
20449;SDS011;10384;51.940;8.432;2023-07-22T07:51:04;12.33;;;4.80;;
20449;SDS011;10384;51.940;8.432;2023-07-22T07:53:30;11.53;;;5.30;;
20449;SDS011;10384;51.940;8.432;2023-07-22T07:55:56;14.23;;;5.37;;
20449;SDS011;10384;51.940;8.432;2023-07-22T07:58:22;11.20;;;4.77;;
20449;SDS011;10384;51.940;8.432;2023-07-22T08:00:48;11.53;;;5.27;;
20449;SDS011;10384;51.940;8.432;2023-07-22T08:03:14;13.53;;;5.33;;
20449;SDS011;10384;51.940;8.432;2023-07-22T08:05:40;13.97;;;5.27;;
20449;SDS011;10384;51.940;8.432;2023-07-22T08:08:06;12.87;;;5.23;;
20449;SDS011;10384;51.940;8.432;2023-07-22T08:10:32;16.20;;;6.00;;
20449;SDS011;10384;51.940;8.432;2023-07-22T08:12:58;12.70;;;5.13;;
20449;SDS011;10384;51.940;8.432;2023-07-22T08:15:24;13.87;;;6.27;;
20449;SDS011;10384;51.940;8.432;2023-07-22T08:17:50;12.73;;;5.60;;
20449;SDS011;10384;51.940;8.432;2023-07-22T08:20:16;13.80;;;6.30;;
20449;SDS011;10384;51.940;8.432;2023-07-22T08:22:42;15.27;;;6.90;;
20449;SDS011;10384;51.940;8.432;2023-07-22T08:25:08;16.73;;;6.73;;
20449;SDS011;10384;51.940;8.432;2023-07-22T08:27:34;17.37;;;6.10;;
20449;SDS011;10384;51.940;8.432;2023-07-22T08:30:00;14.67;;;6.83;;
20449;SDS011;10384;51.940;8.432;2023-07-22T08:32:26;15.23;;;6.33;;
20449;SDS011;10384;51.940;8.432;2023-07-22T08:34:52;13.43;;;5.90;;
20449;SDS011;10384;51.940;8.432;2023-07-22T08:37:18;18.93;;;6.97;;
20449;SDS011;10384;51.940;8.432;2023-07-22T08:39:44;20.13;;;7.97;;
20449;SDS011;10384;51.940;8.432;2023-07-22T08:42:10;19.43;;;8.50;;
20449;SDS011;10384;51.940;8.432;2023-07-22T08:44:37;15.67;;;6.83;;
20449;SDS011;10384;51.940;8.432;2023-07-22T08:47:04;17.30;;;7.33;;
20449;SDS011;10384;51.940;8.432;2023-07-22T08:49:31;19.80;;;8.40;;
20449;SDS011;10384;51.940;8.432;2023-07-22T08:51:57;18.07;;;7.67;;
20449;SDS011;10384;51.940;8.432;2023-07-22T08:54:23;14.93;;;6.47;;
20449;SDS011;10384;51.940;8.432;2023-07-22T08:56:49;19.73;;;8.30;;
20449;SDS011;10384;51.940;8.432;2023-07-22T08:59:19;18.90;;;7.37;;
20449;SDS011;10384;51.940;8.432;2023-07-22T09:01:45;22.43;;;7.17;;
20449;SDS011;10384;51.940;8.432;2023-07-22T09:04:13;19.53;;;7.07;;
20449;SDS011;10384;51.940;8.432;2023-07-22T09:06:39;17.40;;;7.50;;
20449;SDS011;10384;51.940;8.432;2023-07-22T09:09:07;13.47;;;6.70;;
20449;SDS011;10384;51.940;8.432;2023-07-22T09:11:34;14.93;;;6.33;;
20449;SDS011;10384;51.940;8.432;2023-07-22T09:14:01;19.70;;;8.03;;
20449;SDS011;10384;51.940;8.432;2023-07-22T09:16:29;13.83;;;6.57;;
20449;SDS011;10384;51.940;8.432;2023-07-22T09:18:59;15.40;;;5.10;;
20449;SDS011;10384;51.940;8.432;2023-07-22T09:21:25;11.83;;;5.10;;
20449;SDS011;10384;51.940;8.432;2023-07-22T09:23:53;18.17;;;6.63;;
20449;SDS011;10384;51.940;8.432;2023-07-22T09:26:19;12.90;;;5.43;;
20449;SDS011;10384;51.940;8.432;2023-07-22T09:28:56;14.87;;;5.30;;
20449;SDS011;10384;51.940;8.432;2023-07-22T09:31:22;11.10;;;4.83;;
20449;SDS011;10384;51.940;8.432;2023-07-22T09:33:49;12.97;;;5.33;;
20449;SDS011;10384;51.940;8.432;2023-07-22T09:36:15;12.50;;;5.00;;
20449;SDS011;10384;51.940;8.432;2023-07-22T09:38:42;10.83;;;4.67;;
20449;SDS011;10384;51.940;8.432;2023-07-22T09:41:08;11.40;;;5.73;;
20449;SDS011;10384;51.940;8.432;2023-07-22T09:43:40;13.37;;;4.77;;
20449;SDS011;10384;51.940;8.432;2023-07-22T09:46:06;16.10;;;6.03;;
20449;SDS011;10384;51.940;8.432;2023-07-22T09:48:40;8.27;;;3.93;;
20449;SDS011;10384;51.940;8.432;2023-07-22T09:51:06;23.17;;;5.40;;
20449;SDS011;10384;51.940;8.432;2023-07-22T09:53:36;11.17;;;4.90;;
20449;SDS011;10384;51.940;8.432;2023-07-22T09:56:03;9.50;;;4.40;;
20449;SDS011;10384;51.940;8.432;2023-07-22T09:58:30;10.80;;;4.80;;
20449;SDS011;10384;51.940;8.432;2023-07-22T10:00:56;9.93;;;4.77;;
20449;SDS011;10384;51.940;8.432;2023-07-22T10:03:22;9.37;;;4.30;;
20449;SDS011;10384;51.940;8.432;2023-07-22T10:05:53;7.00;;;3.60;;
20449;SDS011;10384;51.940;8.432;2023-07-22T10:08:19;7.70;;;4.10;;
20449;SDS011;10384;51.940;8.432;2023-07-22T10:10:48;10.07;;;4.53;;
20449;SDS011;10384;51.940;8.432;2023-07-22T10:13:17;7.57;;;4.10;;
20449;SDS011;10384;51.940;8.432;2023-07-22T10:15:43;10.77;;;4.20;;
20449;SDS011;10384;51.940;8.432;2023-07-22T10:18:11;7.13;;;3.93;;
20449;SDS011;10384;51.940;8.432;2023-07-22T10:20:37;8.63;;;4.60;;
20449;SDS011;10384;51.940;8.432;2023-07-22T10:23:04;10.90;;;4.10;;
20449;SDS011;10384;51.940;8.432;2023-07-22T10:25:31;7.70;;;4.17;;
20449;SDS011;10384;51.940;8.432;2023-07-22T10:27:57;9.03;;;4.73;;
20449;SDS011;10384;51.940;8.432;2023-07-22T10:30:23;7.97;;;4.13;;
20449;SDS011;10384;51.940;8.432;2023-07-22T10:32:51;7.47;;;4.10;;
20449;SDS011;10384;51.940;8.432;2023-07-22T10:35:21;8.33;;;3.80;;
20449;SDS011;10384;51.940;8.432;2023-07-22T10:37:49;8.10;;;3.70;;
20449;SDS011;10384;51.940;8.432;2023-07-22T10:40:18;9.20;;;4.27;;
20449;SDS011;10384;51.940;8.432;2023-07-22T10:45:23;8.23;;;4.07;;
20449;SDS011;10384;51.940;8.432;2023-07-22T10:47:59;7.63;;;3.43;;
20449;SDS011;10384;51.940;8.432;2023-07-22T10:50:29;8.47;;;3.70;;
20449;SDS011;10384;51.940;8.432;2023-07-22T10:53:03;7.13;;;3.60;;
20449;SDS011;10384;51.940;8.432;2023-07-22T10:55:29;8.50;;;4.30;;
20449;SDS011;10384;51.940;8.432;2023-07-22T10:57:55;6.87;;;3.30;;
20449;SDS011;10384;51.940;8.432;2023-07-22T11:00:29;8.37;;;3.67;;
20449;SDS011;10384;51.940;8.432;2023-07-22T11:03:13;6.20;;;3.40;;
20449;SDS011;10384;51.940;8.432;2023-07-22T11:05:47;7.87;;;3.50;;
20449;SDS011;10384;51.940;8.432;2023-07-22T11:08:13;6.40;;;3.67;;
20449;SDS011;10384;51.940;8.432;2023-07-22T11:10:51;6.20;;;3.50;;
20449;SDS011;10384;51.940;8.432;2023-07-22T11:13:18;6.57;;;3.50;;
20449;SDS011;10384;51.940;8.432;2023-07-22T11:15:48;8.77;;;4.07;;
20449;SDS011;10384;51.940;8.432;2023-07-22T11:18:14;8.37;;;3.60;;
20449;SDS011;10384;51.940;8.432;2023-07-22T11:20:40;5.47;;;3.10;;
20449;SDS011;10384;51.940;8.432;2023-07-22T11:23:06;6.93;;;3.37;;
20449;SDS011;10384;51.940;8.432;2023-07-22T11:25:33;7.07;;;3.40;;
20449;SDS011;10384;51.940;8.432;2023-07-22T11:27:59;7.07;;;3.30;;
20449;SDS011;10384;51.940;8.432;2023-07-22T11:30:26;6.37;;;3.33;;
20449;SDS011;10384;51.940;8.432;2023-07-22T11:32:52;8.87;;;3.83;;
20449;SDS011;10384;51.940;8.432;2023-07-22T11:35:18;9.03;;;4.30;;
20449;SDS011;10384;51.940;8.432;2023-07-22T11:37:44;9.57;;;4.03;;
20449;SDS011;10384;51.940;8.432;2023-07-22T11:40:11;8.20;;;3.70;;
20449;SDS011;10384;51.940;8.432;2023-07-22T11:42:38;7.93;;;4.07;;
20449;SDS011;10384;51.940;8.432;2023-07-22T11:45:04;10.47;;;4.23;;
20449;SDS011;10384;51.940;8.432;2023-07-22T11:47:31;12.07;;;4.47;;
20449;SDS011;10384;51.940;8.432;2023-07-22T11:49:57;14.63;;;5.10;;
20449;SDS011;10384;51.940;8.432;2023-07-22T11:52:23;10.67;;;4.20;;
20449;SDS011;10384;51.940;8.432;2023-07-22T11:54:49;8.20;;;3.73;;
20449;SDS011;10384;51.940;8.432;2023-07-22T11:57:16;10.57;;;3.60;;
20449;SDS011;10384;51.940;8.432;2023-07-22T11:59:46;5.83;;;3.57;;
20449;SDS011;10384;51.940;8.432;2023-07-22T12:02:13;6.10;;;3.27;;
20449;SDS011;10384;51.940;8.432;2023-07-22T12:04:39;5.33;;;3.00;;
20449;SDS011;10384;51.940;8.432;2023-07-22T12:07:05;5.30;;;2.97;;
20449;SDS011;10384;51.940;8.432;2023-07-22T12:09:31;5.20;;;2.83;;
20449;SDS011;10384;51.940;8.432;2023-07-22T12:11:58;9.60;;;3.07;;
20449;SDS011;10384;51.940;8.432;2023-07-22T12:14:25;5.40;;;2.80;;
20449;SDS011;10384;51.940;8.432;2023-07-22T12:16:58;6.70;;;3.63;;
20449;SDS011;10384;51.940;8.432;2023-07-22T12:19:24;6.77;;;3.60;;
20449;SDS011;10384;51.940;8.432;2023-07-22T12:21:52;7.40;;;3.03;;
20449;SDS011;10384;51.940;8.432;2023-07-22T12:24:18;4.90;;;2.90;;
20449;SDS011;10384;51.940;8.432;2023-07-22T12:26:44;8.30;;;3.07;;
20449;SDS011;10384;51.940;8.432;2023-07-22T12:29:10;5.27;;;3.20;;
20449;SDS011;10384;51.940;8.432;2023-07-22T12:31:36;4.67;;;2.40;;
20449;SDS011;10384;51.940;8.432;2023-07-22T12:34:02;4.47;;;2.47;;
20449;SDS011;10384;51.940;8.432;2023-07-22T12:36:28;4.37;;;2.73;;
20449;SDS011;10384;51.940;8.432;2023-07-22T12:38:55;5.20;;;2.73;;
20449;SDS011;10384;51.940;8.432;2023-07-22T12:41:21;4.73;;;2.80;;
20449;SDS011;10384;51.940;8.432;2023-07-22T12:43:47;5.30;;;2.80;;
20449;SDS011;10384;51.940;8.432;2023-07-22T12:46:14;7.80;;;2.90;;
20449;SDS011;10384;51.940;8.432;2023-07-22T12:48:40;6.27;;;2.60;;
20449;SDS011;10384;51.940;8.432;2023-07-22T12:51:06;4.97;;;2.80;;
20449;SDS011;10384;51.940;8.432;2023-07-22T12:53:34;4.83;;;2.70;;
20449;SDS011;10384;51.940;8.432;2023-07-22T12:56:00;6.57;;;3.23;;
20449;SDS011;10384;51.940;8.432;2023-07-22T12:58:28;7.23;;;2.50;;
20449;SDS011;10384;51.940;8.432;2023-07-22T13:00:54;4.13;;;2.10;;
20449;SDS011;10384;51.940;8.432;2023-07-22T13:03:20;5.00;;;2.57;;
20449;SDS011;10384;51.940;8.432;2023-07-22T13:05:46;4.33;;;2.47;;
20449;SDS011;10384;51.940;8.432;2023-07-22T13:08:12;3.43;;;2.13;;
20449;SDS011;10384;51.940;8.432;2023-07-22T13:10:38;4.43;;;2.47;;
20449;SDS011;10384;51.940;8.432;2023-07-22T13:13:08;4.50;;;2.47;;
20449;SDS011;10384;51.940;8.432;2023-07-22T13:15:35;5.37;;;2.70;;
20449;SDS011;10384;51.940;8.432;2023-07-22T13:18:01;4.27;;;2.30;;
20449;SDS011;10384;51.940;8.432;2023-07-22T13:20:27;5.00;;;2.77;;
20449;SDS011;10384;51.940;8.432;2023-07-22T13:22:53;5.00;;;2.20;;
20449;SDS011;10384;51.940;8.432;2023-07-22T13:25:19;4.47;;;2.67;;
20449;SDS011;10384;51.940;8.432;2023-07-22T13:27:46;6.00;;;2.20;;
20449;SDS011;10384;51.940;8.432;2023-07-22T13:30:12;7.57;;;4.00;;
20449;SDS011;10384;51.940;8.432;2023-07-22T13:32:38;5.27;;;2.80;;
20449;SDS011;10384;51.940;8.432;2023-07-22T13:35:04;5.67;;;2.23;;
20449;SDS011;10384;51.940;8.432;2023-07-22T13:37:30;4.20;;;2.13;;
20449;SDS011;10384;51.940;8.432;2023-07-22T13:39:56;6.47;;;2.73;;
20449;SDS011;10384;51.940;8.432;2023-07-22T13:42:23;4.00;;;2.20;;
20449;SDS011;10384;51.940;8.432;2023-07-22T13:44:49;5.47;;;2.60;;
20449;SDS011;10384;51.940;8.432;2023-07-22T13:47:15;5.43;;;2.63;;
20449;SDS011;10384;51.940;8.432;2023-07-22T13:49:41;4.20;;;2.50;;
20449;SDS011;10384;51.940;8.432;2023-07-22T13:52:07;3.97;;;2.20;;
20449;SDS011;10384;51.940;8.432;2023-07-22T13:54:33;3.20;;;2.07;;
20449;SDS011;10384;51.940;8.432;2023-07-22T13:56:59;5.60;;;2.83;;
20449;SDS011;10384;51.940;8.432;2023-07-22T13:59:25;6.13;;;3.17;;
20449;SDS011;10384;51.940;8.432;2023-07-22T14:01:51;8.03;;;2.50;;
20449;SDS011;10384;51.940;8.432;2023-07-22T14:04:17;4.70;;;2.23;;
20449;SDS011;10384;51.940;8.432;2023-07-22T14:06:43;3.53;;;2.33;;
20449;SDS011;10384;51.940;8.432;2023-07-22T14:09:09;4.20;;;2.27;;
20449;SDS011;10384;51.940;8.432;2023-07-22T14:11:35;4.03;;;2.10;;
20449;SDS011;10384;51.940;8.432;2023-07-22T14:14:01;2.97;;;2.10;;
20449;SDS011;10384;51.940;8.432;2023-07-22T14:16:27;4.03;;;1.90;;
20449;SDS011;10384;51.940;8.432;2023-07-22T14:18:53;5.57;;;2.50;;
20449;SDS011;10384;51.940;8.432;2023-07-22T14:21:20;4.80;;;2.30;;
20449;SDS011;10384;51.940;8.432;2023-07-22T14:23:46;6.67;;;2.20;;
20449;SDS011;10384;51.940;8.432;2023-07-22T14:26:12;3.10;;;1.90;;
20449;SDS011;10384;51.940;8.432;2023-07-22T14:28:38;3.70;;;1.97;;
20449;SDS011;10384;51.940;8.432;2023-07-22T14:31:04;4.73;;;2.03;;
20449;SDS011;10384;51.940;8.432;2023-07-22T14:33:29;3.57;;;2.00;;
20449;SDS011;10384;51.940;8.432;2023-07-22T14:35:55;3.17;;;2.10;;
20449;SDS011;10384;51.940;8.432;2023-07-22T14:38:21;3.83;;;1.83;;